Latest Weather Observations for Nerriga

IDN60801

Issued at 11:53 pm EST Friday 16 April 2021 (issued every 10 minutes, with the page automatically refreshed every 10 minutes)

About weather observations | Map of weather stations | Latest weather observations for NSW | Other Formats
Station Details ID: 069128 Name: NERRIGA AWS Lat: -35.11 Lon: 150.08 Height: 622.0 m
Data from the previous 72 hours. | See also: Recent months at Nerriga
Date/Time
EST
Temp
°C
App
Temp
°C
Dew
Point
°C
Rel
Hum
%
Delta-T
°C
Wind Press
QNH
hPa
Press
MSL
hPa
Rain since
9am
mm
Dir  Spd
km/h
Gust
km/h
Spd
kts
Gust
kts
16/11:30pm 8.3 7.4 5.9 85 1.1 CALM 0 2 0 1 1024.3 1023.4 0.0
16/11:00pm 8.8 7.9 5.9 82 1.4 CALM 0 4 0 2 1024.6 1023.8 0.0
16/10:30pm 9.0 8.1 6.1 82 1.4 CALM 0 0 0 0 1024.9 1024.1 0.0
16/10:00pm 10.0 8.0 6.2 77 1.8 ESE 6 9 3 5 1025.0 1024.2 0.0
16/09:30pm 10.0 8.5 6.7 80 1.6 ESE 4 9 2 5 1025.0 1024.2 0.0
16/09:00pm 9.6 8.5 6.9 83 1.3 ESE 2 2 1 1 1024.8 1024.0 0.0
16/08:30pm 8.4 6.4 6.4 87 1.0 ESE 6 7 3 4 1024.7 1023.9 0.0
16/08:00pm 8.5 7.2 6.1 85 1.1 ESE 2 4 1 2 1024.6 1023.8 0.0
16/07:30pm 9.1 6.2 6.4 83 1.3 ESE 11 15 6 8 1024.4 1023.5 0.0
16/07:00pm 8.9 5.9 6.2 83 1.3 E 11 15 6 8 1024.3 1023.4 0.0
16/06:30pm 9.2 6.6 5.9 80 1.6 E 9 13 5 7 1024.1 1023.2 0.0
16/06:00pm 9.7 5.9 5.9 77 1.8 ESE 15 22 8 12 1023.2 1022.4 0.0
16/05:30pm 10.5 6.4 6.1 74 2.1 ESE 17 24 9 13 1022.8 1021.9 0.0
16/05:00pm 11.3 6.8 6.0 70 2.6 ESE 19 26 10 14 1022.4 1021.5 0.0
16/04:30pm 12.3 7.8 6.8 69 2.7 ESE 20 28 11 15 1022.3 1021.4 0.0
16/04:00pm 13.2 8.8 7.4 68 2.9 E 20 28 11 15 1022.1 1021.2 0.0
16/03:30pm 14.0 9.6 7.5 65 3.3 E 20 26 11 14 1021.7 1020.8 0.0
16/03:00pm 14.4 10.1 7.7 64 3.4 E 20 26 11 14 1021.6 1020.7 0.0
16/02:30pm 14.4 9.6 7.2 62 3.7 E 22 30 12 16 1021.4 1020.5 0.0
16/02:00pm 15.4 11.3 7.9 61 3.9 ENE 19 24 10 13 1021.0 1020.1 0.0
16/01:30pm 18.4 16.4 6.9 47 5.9 NNW 7 17 4 9 1021.0 1020.1 0.0
16/01:00pm 17.7 14.5 3.2 38 6.9 NNW 9 15 5 8 1021.3 1020.4 0.0
16/12:30pm 16.4 14.1 5.7 49 5.3 NE 7 11 4 6 1021.6 1020.7 0.0
16/12:00pm 16.0 14.6 7.2 56 4.5 ENE 4 7 2 4 1021.9 1021.1 0.0
16/11:30am 16.1 13.9 6.0 51 5.1 NE 7 13 4 7 1022.1 1021.2 0.0
16/11:00am 15.7 13.7 6.2 53 4.7 NE 6 13 3 7 1022.4 1021.5 0.0
16/10:30am 15.2 13.5 7.5 60 3.9 WSW 6 11 3 6 1022.5 1021.6 0.0
16/10:00am 14.4 12.5 6.7 60 3.8 WSW 6 11 3 6 1022.4 1021.5 0.0
16/09:30am 12.2 10.3 4.9 61 3.5 WSW 4 7 2 4 1022.4 1021.5 0.0
16/09:00am 11.8 10.3 5.2 64 3.1 WSW 2 6 1 3 1022.3 1021.4 0.0
16/08:30am 10.7 9.5 4.6 66 2.8 CALM 0 4 0 2 1021.9 1021.1 0.0
16/08:00am 8.1 7.1 5.7 85 1.1 CALM 0 0 0 0 1021.6 1020.7 0.0
16/07:30am 5.6 4.4 4.7 94 0.4 CALM 0 0 0 0 1021.2 1020.3 0.0
16/07:00am 4.7 3.4 4.0 95 0.3 CALM 0 0 0 0 1020.8 1019.9 0.0
16/06:30am 5.0 3.4 4.4 96 0.3 WSW 2 4 1 2 1020.2 1019.3 0.0
16/06:00am 4.4 3.0 3.5 94 0.4 CALM 0 0 0 0 1019.9 1019.0 0.0
16/05:30am 5.0 3.6 3.8 92 0.5 CALM 0 0 0 0 1019.4 1018.5 0.0
16/05:00am 5.3 4.0 4.1 92 0.5 CALM 0 0 0 0 1019.1 1018.2 0.0
16/04:30am 4.6 3.0 2.6 87 0.8 CALM 0 0 0 0 1019.1 1018.2 0.0
16/04:00am 6.1 4.8 3.9 86 1.0 CALM 0 0 0 0 1018.7 1017.7 0.0
16/03:30am 7.0 5.7 4.1 82 1.3 CALM 0 0 0 0 1018.2 1017.3 0.0
16/03:00am 7.8 6.2 4.4 79 1.5 WSW 2 4 1 2 1018.2 1017.3 0.0
16/02:30am 8.0 6.0 4.4 78 1.6 WSW 4 6 2 3 1018.0 1017.1 0.0
16/02:00am 8.4 6.4 4.4 76 1.8 WSW 4 4 2 2 1017.9 1017.0 0.0
16/01:30am 8.7 6.8 4.7 76 1.8 WSW 4 7 2 4 1018.0 1017.1 0.0
16/01:00am 8.5 6.1 4.3 75 1.9 WSW 6 9 3 5 1017.9 1017.0 0.0
16/12:30am 9.1 5.8 4.7 74 2.0 WSW 11 15 6 8 1017.9 1017.0 0.0
16/12:00am 9.6 7.1 4.6 71 2.3 W 7 15 4 8 1017.9 1017.0 0.0
 
Date/Time
EST
Temp
°C
App
Temp
°C
Dew
Point
°C
Rel
Hum
%
Delta-T
°C
Wind Press
QNH
hPa
Press
MSL
hPa
Rain since
9am
mm
Dir  Spd
km/h
Gust
km/h
Spd
kts
Gust
kts
15/11:30pm 10.0 7.1 4.6 69 2.5 W 9 15 5 8 1017.6 1016.6 0.0
15/11:00pm 10.7 6.7 4.8 67 2.8 W 15 22 8 12 1017.6 1016.6 0.0
15/10:30pm 11.1 6.4 5.0 66 2.9 W 19 24 10 13 1017.4 1016.4 0.0
15/10:00pm 11.4 8.1 4.8 64 3.1 W 11 19 6 10 1017.5 1016.5 0.0
15/09:30pm 11.5 7.5 4.7 63 3.2 W 15 24 8 13 1017.2 1016.2 0.0
15/09:00pm 12.3 7.0 4.8 60 3.6 WNW 22 32 12 17 1016.5 1015.6 0.0
15/08:30pm 12.4 7.6 4.4 58 3.8 WNW 19 26 10 14 1016.4 1015.5 0.0
15/08:00pm 12.4 7.5 4.1 57 3.9 W 19 30 10 16 1016.0 1015.0 0.0
15/07:30pm 12.5 8.2 3.5 54 4.2 WNW 15 28 8 15 1016.0 1015.0 0.0
15/07:00pm 13.1 7.7 2.6 49 4.8 WNW 20 30 11 16 1015.7 1014.7 0.0
15/06:30pm 13.7 8.8 2.0 45 5.3 WNW 17 30 9 16 1015.5 1014.5 0.0
15/06:00pm 13.9 8.7 2.2 45 5.3 WNW 19 28 10 15 1014.8 1013.8 0.0
15/05:30pm 14.5 9.1 2.4 44 5.6 WNW 20 28 11 15 1014.7 1013.7 0.0
15/05:00pm 16.0 10.3 3.1 42 6.1 WNW 22 35 12 19 1014.1 1013.1 0.0
15/04:30pm 17.0 10.2 3.0 39 6.6 WNW 28 37 15 20 1013.9 1012.9 0.0
15/04:00pm 16.9 11.5 2.5 38 6.8 WNW 20 30 11 16 1013.7 1012.7 0.0
15/03:30pm 18.0 10.7 2.3 35 7.4 NW 30 39 16 21 1013.7 1012.7 0.0
15/03:00pm 18.6 12.5 2.9 35 7.5 WNW 24 35 13 19 1013.7 1012.7 0.0
15/02:30pm 18.9 12.9 3.1 35 7.6 WNW 24 35 13 19 1013.8 1012.8 0.0
15/02:00pm 19.1 12.9 4.5 38 7.2 WNW 26 41 14 22 1013.9 1012.9 0.0
15/01:30pm 18.5 12.2 3.9 38 7.1 W 26 35 14 19 1014.2 1013.2 0.0
15/01:00pm 18.7 12.7 5.2 41 6.8 WNW 26 41 14 22 1014.7 1013.7 0.0
15/12:30pm 17.9 10.8 3.4 38 7.0 WNW 30 48 16 26 1014.8 1013.8 0.0
15/12:22pm 17.9 11.2 3.8 39 6.8 NW 28 48 15 26 1014.8 1013.8 0.0
15/12:00pm 17.5 10.3 3.0 38 6.9 WNW 30 43 16 23 1015.1 1014.2 0.0
15/11:30am 16.8 11.0 4.5 44 6.0 WNW 24 32 13 17 1015.6 1014.6 0.0
15/11:00am 17.5 12.1 4.5 42 6.4 W 22 30 12 16 1015.8 1014.8 0.0
15/10:30am 16.9 10.4 4.6 44 6.0 WNW 28 37 15 20 1016.1 1015.1 0.0
15/10:00am 16.2 11.1 3.9 44 5.9 W 20 35 11 19 1016.2 1015.2 0.0
15/09:30am 15.0 11.2 5.8 54 4.6 W 15 20 8 11 1016.5 1015.6 0.0
15/09:00am 13.9 10.3 5.0 55 4.3 WNW 13 20 7 11 1016.5 1015.6 0.0
15/08:30am 12.2 10.4 5.6 64 3.2 WSW 4 6 2 3 1016.7 1015.8 0.0
15/08:00am 11.1 10.0 5.0 66 2.9 CALM 0 0 0 0 1016.6 1015.7 0.0
15/07:30am 9.0 8.0 5.6 79 1.6 CALM 0 0 0 0 1016.4 1015.5 0.0
15/07:00am 6.8 4.8 4.6 86 1.0 WSW 4 6 2 3 1016.3 1015.4 0.0
15/06:30am 7.1 5.7 5.4 89 0.8 WSW 2 6 1 3 1016.1 1015.1 0.0
15/06:00am 7.2 5.3 4.7 84 1.1 WSW 4 6 2 3 1015.9 1014.9 0.0
15/05:30am 7.5 5.2 5.0 84 1.1 WSW 6 6 3 3 1015.8 1014.8 0.0
15/05:00am 7.8 5.5 4.6 80 1.5 WSW 6 7 3 4 1015.6 1014.6 0.0
15/04:30am 8.1 5.4 3.8 74 1.9 WSW 7 9 4 5 1015.6 1014.6 0.0
15/04:00am 9.5 7.2 4.7 72 2.2 WSW 6 9 3 5 1015.5 1014.5 0.0
15/03:30am 9.2 6.8 5.2 76 1.9 SSW 7 17 4 9 1015.5 1014.5 0.0
15/03:00am 9.3 6.9 4.1 70 2.4 SSW 6 7 3 4 1015.6 1014.6 0.0
15/02:30am 9.7 7.2 4.5 70 2.4 SSW 7 9 4 5 1015.6 1014.6 0.0
15/02:00am 10.3 7.5 5.1 70 2.4 WNW 9 13 5 7 1015.6 1014.6 0.0
15/01:30am 9.8 6.9 4.8 71 2.3 WNW 9 13 5 7 1015.9 1014.9 0.0
15/01:00am 11.1 9.2 4.8 65 3.0 WNW 4 6 2 3 1015.8 1014.8 0.0
15/12:30am 11.2 9.3 5.1 66 2.9 WNW 4 9 2 5 1015.7 1014.7 0.0
15/12:00am 11.4 7.4 5.1 65 3.0 NW 15 20 8 11 1015.4 1014.4 0.0
 
Date/Time
EST
Temp
°C
App
Temp
°C
Dew
Point
°C
Rel
Hum
%
Delta-T
°C
Wind Press
QNH
hPa
Press
MSL
hPa
Rain since
9am
mm
Dir  Spd
km/h
Gust
km/h
Spd
kts
Gust
kts
14/11:30pm 11.3 6.5 4.5 63 3.2 NW 19 28 10 15 1015.3 1014.3 0.0
14/11:00pm 12.2 7.7 4.2 58 3.7 NW 17 24 9 13 1015.7 1014.7 0.0
14/10:30pm 13.0 8.4 3.7 53 4.3 WNW 17 24 9 13 1015.8 1014.8 0.0
14/10:00pm 12.6 7.5 3.0 52 4.4 WNW 19 26 10 14 1015.8 1014.8 0.0
14/09:30pm 12.9 8.1 2.7 50 4.6 WNW 17 20 9 11 1015.9 1014.9 0.0
14/09:00pm 13.3 9.3 2.8 49 4.8 NW 13 17 7 9 1015.8 1014.8 0.0
14/08:30pm 13.3 8.9 2.8 49 4.8 NNW 15 22 8 12 1015.4 1014.4 0.0
14/08:00pm 13.3 8.5 2.8 49 4.8 NW 17 22 9 12 1015.3 1014.3 0.0
14/07:30pm 13.8 10.2 3.0 48 5.0 NW 11 17 6 9 1015.1 1014.2 0.0
14/07:00pm 14.4 10.8 2.9 46 5.3 NW 11 17 6 9 1015.0 1014.1 0.0
14/06:30pm 15.0 11.0 2.9 44 5.6 NW 13 20 7 11 1014.9 1014.0 0.0
14/06:00pm 15.9 11.4 2.0 39 6.4 WNW 15 22 8 12 1014.6 1013.6 0.0
14/05:30pm 16.8 10.5 1.7 36 7.0 WNW 24 37 13 20 1014.1 1013.1 0.0
14/05:00pm 18.1 11.1 2.0 34 7.5 WNW 28 39 15 21 1013.8 1012.8 0.0
14/04:30pm 18.7 11.0 2.1 33 7.8 WNW 32 48 17 26 1013.3 1012.3 0.0
14/04:00pm 19.5 12.4 1.5 30 8.4 WNW 28 41 15 22 1013.0 1012.0 0.0
14/03:30pm 19.8 11.7 0.8 28 8.8 WNW 33 46 18 25 1012.9 1011.9 0.0
14/03:00pm 20.6 12.6 1.5 28 9.0 WNW 33 54 18 29 1012.9 1011.9 0.0
14/02:30pm 19.1 10.7 -0.8 26 8.9 WNW 33 56 18 30 1012.8 1011.8 0.0
14/02:00pm 20.3 11.1 1.2 28 9.0 WNW 39 61 21 33 1012.9 1011.9 0.0
14/01:30pm 20.2 10.8 2.1 30 8.6 WNW 41 67 22 36 1013.2 1012.2 0.0
14/01:00pm 19.8 10.5 0.8 28 8.8 WNW 39 59 21 32 1012.9 1011.9 0.0
14/12:30pm 19.1 8.7 -0.3 27 8.7 WNW 44 65 24 35 1013.0 1012.0 0.0
14/12:20pm 19.0 8.9 0.1 28 8.6 WNW 43 72 23 39 1013.0 1012.0 0.0
14/12:02pm 19.4 11.4 1.9 31 8.3 WNW 33 52 18 28 1013.2 1012.2 0.0
14/12:00pm 19.6 11.7 2.0 31 8.3 WNW 33 52 18 28 1013.2 1012.2 0.0
14/11:30am 18.2 9.5 2.1 34 7.6 WNW 37 54 20 29 1013.7 1012.7 0.0
14/11:00am 17.5 9.6 2.3 36 7.1 WNW 33 56 18 30 1013.7 1012.7 0.0
14/10:30am 16.5 9.2 2.5 39 6.5 NW 30 48 16 26 1014.2 1013.2 0.0
14/10:00am 16.4 8.6 1.7 37 6.8 NW 32 52 17 28 1014.5 1013.5 0.0
14/09:54am 16.3 8.5 1.6 37 6.7 NW 32 52 17 28 1014.4 1013.4 0.0
14/09:30am 16.4 9.8 2.1 38 6.6 NW 26 37 14 20 1014.6 1013.6 0.0
14/09:00am 15.7 8.2 1.4 38 6.5 NW 30 48 16 26 1014.8 1013.8 0.2
14/08:35am 15.3 7.3 1.8 40 6.2 WNW 33 52 18 28 1014.6 1013.6 0.2
14/08:30am 15.0 6.3 1.9 41 6.0 WNW 37 46 20 25 1014.7 1013.7 0.2
14/08:12am 14.1 6.3 1.4 42 5.7 NW 32 50 17 27 1014.7 1013.7 0.2
14/08:00am 13.8 6.0 1.5 43 5.5 NW 32 44 17 24 1014.9 1014.0 0.2
14/07:32am 13.3 6.1 1.0 43 5.4 NW 28 46 15 25 1015.0 1014.1 0.2
14/07:30am 13.4 6.6 1.1 43 5.4 NW 26 46 14 25 1015.0 1014.1 0.2
14/07:00am 13.0 7.6 1.0 44 5.3 NW 19 28 10 15 1015.1 1014.2 0.2
14/06:30am 12.4 4.8 0.8 45 5.0 NW 30 43 16 23 1014.5 1013.5 0.2
14/06:00am 12.5 6.0 0.6 44 5.2 NW 24 41 13 22 1014.6 1013.6 0.2
14/05:30am 13.3 5.7 0.3 41 5.6 NW 30 41 16 22 1014.6 1013.6 0.2
14/05:00am 13.3 6.4 0.3 41 5.6 NW 26 35 14 19 1014.6 1013.6 0.2
14/04:30am 13.1 6.7 0.8 43 5.4 NW 24 35 13 19 1014.4 1013.4 0.2
14/04:00am 12.7 8.1 1.4 46 5.0 WNW 15 20 8 11 1014.8 1013.8 0.2
14/03:30am 12.3 8.9 1.9 49 4.6 NW 9 11 5 6 1014.9 1014.0 0.2
14/03:00am 12.2 7.7 2.1 50 4.5 NW 15 24 8 13 1015.3 1014.3 0.2
14/02:30am 12.2 7.3 2.1 50 4.5 NW 17 22 9 12 1015.4 1014.4 0.2
14/02:00am 11.8 7.7 2.5 53 4.2 NNW 13 19 7 10 1015.9 1014.9 0.2
14/01:30am 11.4 7.8 2.7 55 3.9 NNW 11 15 6 8 1016.3 1015.4 0.2
14/01:00am 11.5 7.5 2.8 55 3.9 NNW 13 19 7 10 1016.5 1015.6 0.2
14/12:30am 11.1 7.1 2.7 56 3.8 NNW 13 17 7 9 1017.1 1016.1 0.2
14/12:00am 11.4 7.0 2.7 55 3.9 NW 15 19 8 10 1017.4 1016.4 0.2

Other formats

Comma delimited format used in spreadsheet applications
http://www.bom.gov.au/fwo/IDN60801/IDN60801.94943.axf

JavaScript Object Notation format (JSON) in row-major order
http://www.bom.gov.au/fwo/IDN60801/IDN60801.94943.json

Data quality

Most of these data are generated automatically and are frequently updated. Quality checks on data are not normally performed. It is possible for incorrect values to appear. Refer to information at About Latest Weather Observations and please check the disclaimer before using these data.